createdAt,value
2019-01-28T05:44:12.097Z,1.10
2019-01-28T05:46:41.330Z,1.30
2019-01-28T05:49:10.576Z,1.30
2019-01-28T05:51:39.730Z,1.30
2019-01-28T05:54:08.903Z,1.30
2019-01-28T05:56:38.151Z,1.40
2019-01-28T05:59:07.424Z,1.30
2019-01-28T06:01:36.661Z,1.40
2019-01-28T06:04:06.123Z,1.40
2019-01-28T06:06:35.279Z,1.40
2019-01-28T06:09:08.362Z,1.40
2019-01-28T06:11:37.528Z,1.40
2019-01-28T06:14:06.811Z,1.40
2019-01-28T06:16:35.998Z,1.40
2019-01-28T06:19:05.363Z,1.40
2019-01-28T06:21:34.600Z,1.40
2019-01-28T06:24:03.957Z,1.40
2019-01-28T06:26:33.232Z,1.30
2019-01-28T06:29:02.391Z,1.30
2019-01-28T06:31:31.569Z,1.30
2019-01-28T06:34:00.988Z,1.30
2019-01-28T06:36:30.216Z,1.30
2019-01-28T06:38:59.391Z,1.40
2019-01-28T06:41:28.545Z,1.40
2019-01-28T06:43:57.706Z,1.40
2019-01-28T06:46:26.951Z,1.40
2019-01-28T06:48:56.124Z,1.40
2019-01-28T06:51:25.641Z,1.30
2019-01-28T06:53:54.799Z,1.30
2019-01-28T06:56:23.977Z,1.30
2019-01-28T06:58:53.163Z,1.30
2019-01-28T07:01:22.383Z,1.30
2019-01-28T07:03:51.557Z,1.30
2019-01-28T07:06:20.794Z,1.30
2019-01-28T07:08:49.965Z,1.40
2019-01-28T07:11:19.141Z,1.40
2019-01-28T07:13:48.403Z,1.40
2019-01-28T07:16:17.595Z,1.40
2019-01-28T07:18:46.769Z,1.40
2019-01-28T07:21:15.989Z,1.40
2019-01-28T07:23:45.170Z,1.50
2019-01-28T07:26:14.404Z,1.50
2019-01-28T07:28:43.593Z,1.50
2019-01-28T07:31:12.874Z,1.50
2019-01-28T07:33:42.101Z,1.50
2019-01-28T07:36:12.866Z,1.60
2019-01-28T07:38:42.099Z,1.60
2019-01-28T07:41:11.254Z,1.60
2019-01-28T07:43:42.017Z,1.70
2019-01-28T07:46:11.262Z,1.70
2019-01-28T07:48:40.412Z,1.70
2019-01-28T07:51:10.061Z,1.70
2019-01-28T07:53:39.359Z,1.70
2019-01-28T07:56:08.627Z,1.80
2019-01-28T07:58:37.871Z,1.80
2019-01-28T08:01:07.036Z,1.80
2019-01-28T08:03:36.384Z,1.80
2019-01-28T08:06:06.963Z,1.80
2019-01-28T08:08:36.137Z,1.90
2019-01-28T08:11:06.087Z,1.90
2019-01-28T08:13:35.391Z,2.00
2019-01-28T08:16:04.674Z,2.00
2019-01-28T08:18:33.841Z,2.00
2019-01-28T08:21:03.126Z,2.00
2019-01-28T08:23:32.416Z,2.00
2019-01-28T08:26:01.732Z,2.00
2019-01-28T08:28:36.851Z,2.00
2019-01-28T08:31:01.815Z,2.00
2019-01-28T08:33:31.059Z,2.00
2019-01-28T08:36:00.226Z,2.00
2019-01-28T08:38:29.439Z,2.00
2019-01-28T08:40:58.632Z,2.00
2019-01-28T08:43:27.857Z,2.00
2019-01-28T08:45:57.010Z,2.00
2019-01-28T08:48:26.395Z,2.00
2019-01-28T08:50:55.856Z,2.00
2019-01-28T08:53:25.071Z,2.00
2019-01-28T08:55:54.286Z,2.00
2019-01-28T08:58:23.539Z,1.90
2019-01-28T09:00:52.720Z,1.90
2019-01-28T09:03:21.899Z,1.90
2019-01-28T09:05:51.066Z,2.00
2019-01-28T09:08:20.268Z,2.00
2019-01-28T09:10:49.796Z,2.00
2019-01-28T09:13:18.997Z,2.10
2019-01-28T09:15:48.169Z,2.20
2019-01-28T09:18:17.435Z,2.20
2019-01-28T09:20:46.648Z,2.20
2019-01-28T09:23:15.924Z,2.10
2019-01-28T09:25:45.273Z,2.10
2019-01-28T09:28:14.544Z,2.20
2019-01-28T09:30:43.977Z,2.20
2019-01-28T09:33:13.289Z,2.30
2019-01-28T09:35:42.633Z,2.30
2019-01-28T09:38:11.798Z,2.30
2019-01-28T09:40:41.022Z,2.20
2019-01-28T09:43:10.315Z,2.30
2019-01-28T09:45:41.552Z,2.30
2019-01-28T09:48:13.322Z,2.30
2019-01-28T09:50:43.148Z,2.40
2019-01-28T09:53:13.642Z,2.50
2019-01-28T09:55:42.808Z,2.50
2019-01-28T09:58:12.088Z,2.60
2019-01-28T10:00:44.231Z,2.60
2019-01-28T10:03:13.466Z,2.70
2019-01-28T10:05:43.016Z,2.70
2019-01-28T10:08:12.709Z,2.70
2019-01-28T10:10:42.454Z,2.70
2019-01-28T10:13:11.674Z,2.70
2019-01-28T10:15:41.033Z,2.70
2019-01-28T10:18:10.327Z,2.70
2019-01-28T10:20:44.617Z,2.70
2019-01-28T10:23:13.838Z,2.80
2019-01-28T10:25:43.618Z,2.80
2019-01-28T10:28:12.963Z,3.00
2019-01-28T10:30:43.447Z,3.60
2019-01-28T10:33:13.609Z,4.20
2019-01-28T10:35:45.289Z,4.90
2019-01-28T10:38:14.853Z,5.20
2019-01-28T10:40:45.479Z,5.00
2019-01-28T10:43:15.161Z,4.80
2019-01-28T10:45:44.644Z,4.70
2019-01-28T10:48:14.606Z,4.70
2019-01-28T10:50:45.190Z,4.70
2019-01-28T10:53:14.471Z,4.60
2019-01-28T10:55:43.732Z,4.50
2019-01-28T10:58:13.239Z,4.30
2019-01-28T11:00:48.806Z,4.20
2019-01-28T11:03:24.126Z,4.30
2019-01-28T11:05:54.065Z,4.60
2019-01-28T11:08:23.207Z,4.80
2019-01-28T11:10:52.671Z,5.10
2019-01-28T11:13:21.938Z,5.30
2019-01-28T11:15:51.204Z,5.30
2019-01-28T11:18:24.704Z,5.10
2019-01-28T11:20:54.042Z,5.00
2019-01-28T11:23:23.889Z,4.60
2019-01-28T11:25:53.134Z,4.40
2019-01-28T11:28:22.760Z,3.90
2019-01-28T11:31:00.463Z,3.80
2019-01-28T11:33:30.056Z,3.60
2019-01-28T11:36:05.098Z,4.70
2019-01-28T11:38:30.437Z,5.00
2019-01-28T11:40:59.955Z,5.30
2019-01-28T11:43:29.608Z,5.10
2019-01-28T11:46:01.329Z,4.30
2019-01-28T11:48:32.668Z,3.80
2019-01-28T11:51:02.085Z,3.50
2019-01-28T11:53:31.231Z,3.40
2019-01-28T11:56:00.557Z,3.30
2019-01-28T11:58:30.077Z,3.10
2019-01-28T12:01:12.008Z,3.10
2019-01-28T12:03:41.236Z,3.00
2019-01-28T12:06:12.271Z,3.00
2019-01-28T12:08:41.824Z,2.90
2019-01-28T12:11:11.485Z,2.90
2019-01-28T12:13:41.069Z,2.80
2019-01-28T12:16:10.323Z,2.80
2019-01-28T12:18:39.471Z,2.80
2019-01-28T12:21:08.843Z,2.80
2019-01-28T12:23:38.067Z,2.80
2019-01-28T12:26:07.682Z,2.80
2019-01-28T12:28:36.945Z,2.80
2019-01-28T12:31:06.125Z,2.80
2019-01-28T12:33:35.287Z,2.70
2019-01-28T12:36:04.948Z,2.70
2019-01-28T12:38:34.163Z,2.80
2019-01-28T12:41:03.436Z,2.90
2019-01-28T12:43:32.665Z,2.90
2019-01-28T12:46:03.360Z,3.00
2019-01-28T12:48:33.340Z,3.20
2019-01-28T12:51:02.777Z,3.50
2019-01-28T12:53:31.949Z,3.70
2019-01-28T12:56:01.120Z,4.00
2019-01-28T12:58:30.469Z,4.30
2019-01-28T13:01:03.716Z,4.20
2019-01-28T13:03:32.984Z,4.00
2019-01-28T13:06:02.295Z,3.80
2019-01-28T13:08:31.570Z,3.60
2019-01-28T13:11:00.830Z,3.50
2019-01-28T13:13:30.174Z,3.60
2019-01-28T13:15:59.542Z,3.70
2019-01-28T13:18:28.830Z,3.90
2019-01-28T13:20:58.062Z,4.00
2019-01-28T13:23:27.293Z,4.20
2019-01-28T13:25:56.670Z,4.10
2019-01-28T13:28:25.937Z,4.10
2019-01-28T13:30:55.387Z,3.80
2019-01-28T13:33:24.967Z,3.80
2019-01-28T13:35:55.427Z,3.80
2019-01-28T13:38:24.681Z,3.80
2019-01-28T13:40:56.301Z,3.80
2019-01-28T13:43:27.422Z,3.70
2019-01-28T13:45:56.571Z,3.60
2019-01-28T13:48:25.871Z,3.40
2019-01-28T13:50:55.117Z,3.40
2019-01-28T13:53:24.300Z,3.30
2019-01-28T13:55:53.625Z,3.30
2019-01-28T13:58:22.879Z,3.30
2019-01-28T14:00:52.137Z,3.30
2019-01-28T14:03:21.484Z,3.30
2019-01-28T14:05:50.724Z,3.30
2019-01-28T14:08:21.074Z,3.10
2019-01-28T14:10:51.458Z,3.10
2019-01-28T14:13:20.779Z,3.00
2019-01-28T14:15:51.077Z,3.00
2019-01-28T14:18:20.302Z,3.00
2019-01-28T14:20:53.511Z,3.00
2019-01-28T14:23:24.104Z,3.00
2019-01-28T14:25:53.638Z,3.00
2019-01-28T14:28:24.011Z,3.00
2019-01-28T14:30:53.261Z,3.00
2019-01-28T14:33:22.812Z,3.00
2019-01-28T14:35:52.181Z,3.10
2019-01-28T14:38:21.437Z,3.00
2019-01-28T14:40:50.699Z,3.00
2019-01-28T14:43:19.982Z,2.90
2019-01-28T14:45:49.281Z,3.00
2019-01-28T14:48:18.629Z,3.00
2019-01-28T14:50:48.617Z,3.00
2019-01-28T14:53:17.854Z,2.90
2019-01-28T14:55:47.177Z,2.90
2019-01-28T14:58:16.865Z,2.90
2019-01-28T15:00:47.955Z,2.90
2019-01-28T15:03:17.476Z,2.90
2019-01-28T15:05:48.069Z,2.90
2019-01-28T15:08:17.253Z,2.80
2019-01-28T15:10:46.959Z,2.70
2019-01-28T15:13:16.208Z,2.60
2019-01-28T15:15:45.455Z,2.60
2019-01-28T15:18:16.697Z,2.60
2019-01-28T15:20:47.125Z,2.50
2019-01-28T15:23:16.652Z,2.40
2019-01-28T15:25:46.204Z,2.30
2019-01-28T15:28:15.547Z,2.20
2019-01-28T15:30:46.070Z,2.10
2019-01-28T15:33:15.429Z,2.10
2019-01-28T15:35:44.974Z,2.00
2019-01-28T15:38:14.397Z,2.00
2019-01-28T15:40:43.848Z,2.00
2019-01-28T15:43:13.215Z,1.90
2019-01-28T15:45:44.360Z,1.90
2019-01-28T15:48:15.157Z,1.80
2019-01-28T15:50:44.958Z,1.80
2019-01-28T15:53:14.328Z,1.80
2019-01-28T15:55:44.406Z,1.70
2019-01-28T16:00:40.061Z,1.60
2019-01-28T16:03:10.003Z,1.50
2019-01-28T16:05:39.200Z,1.40
2019-01-28T16:08:09.159Z,1.40
2019-01-28T16:10:38.507Z,1.40
2019-01-28T16:13:07.991Z,1.40
2019-01-28T16:15:43.897Z,1.40
2019-01-28T16:18:14.854Z,1.40
2019-01-28T16:20:45.122Z,1.40
2019-01-28T16:23:14.403Z,1.40
2019-01-28T16:25:43.690Z,1.40
2019-01-28T16:28:12.854Z,1.40
2019-01-28T16:30:43.662Z,1.30
2019-01-28T16:33:12.902Z,1.30
2019-01-28T16:35:42.173Z,1.30
2019-01-28T16:38:11.382Z,1.40
2019-01-28T16:40:41.065Z,1.40
2019-01-28T16:43:11.100Z,1.30
2019-01-28T16:45:40.493Z,1.30
2019-01-28T16:48:10.532Z,1.30
2019-01-28T16:50:42.470Z,1.30
2019-01-28T16:53:13.612Z,1.30
2019-01-28T16:55:43.376Z,1.30
2019-01-28T16:58:13.516Z,1.20
2019-01-28T17:00:44.373Z,1.10
2019-01-28T17:03:14.699Z,1.00
2019-01-28T17:05:44.601Z,0.90
2019-01-28T17:08:14.296Z,0.80
2019-01-28T17:10:43.671Z,0.80
2019-01-28T17:13:12.934Z,0.70
2019-01-28T17:15:42.210Z,0.70
2019-01-28T17:18:11.990Z,0.60
2019-01-28T17:20:41.284Z,0.60
2019-01-28T17:23:10.870Z,0.60
2019-01-28T17:25:42.715Z,0.60
2019-01-28T17:28:33.026Z,0.70
2019-01-28T17:31:02.486Z,0.70
2019-01-28T17:33:31.818Z,0.70
2019-01-28T17:36:01.040Z,0.70
2019-01-28T17:38:30.375Z,0.70
2019-01-28T17:40:59.675Z,0.70
2019-01-28T17:43:29.259Z,0.80
2019-01-28T17:45:58.491Z,0.80
2019-01-28T17:48:27.968Z,0.80
2019-01-28T17:50:57.343Z,0.80
2019-01-28T17:53:26.551Z,0.80
2019-01-28T17:55:55.848Z,0.80
2019-01-28T17:58:25.169Z,0.80
2019-01-28T18:00:57.215Z,0.80
2019-01-28T18:03:26.812Z,0.80
2019-01-28T18:05:56.110Z,0.80
2019-01-28T18:08:25.414Z,0.90
2019-01-28T18:10:54.608Z,0.90
2019-01-28T18:13:23.913Z,0.80
2019-01-28T18:15:53.261Z,0.80
2019-01-28T18:18:22.628Z,0.80
2019-01-28T18:20:52.297Z,0.90
2019-01-28T18:23:30.783Z,0.90
2019-01-28T18:26:00.128Z,0.80
2019-01-28T18:28:29.398Z,0.80
2019-01-28T18:30:58.768Z,0.80
2019-01-28T18:33:28.045Z,0.80
2019-01-28T18:36:05.385Z,0.80
2019-01-28T18:38:28.462Z,0.70
2019-01-28T18:40:57.795Z,0.70
2019-01-28T18:43:27.282Z,0.70
2019-01-28T18:45:56.686Z,0.70
2019-01-28T18:48:25.923Z,0.70
2019-01-28T18:50:59.691Z,0.70
2019-01-28T18:53:26.510Z,0.60
2019-01-28T18:55:55.827Z,0.60
2019-01-28T18:58:25.098Z,0.60
2019-01-28T19:00:54.311Z,0.60
2019-01-28T19:03:24.588Z,0.60
2019-01-28T19:06:28.108Z,0.60
2019-01-28T19:09:02.914Z,0.60
2019-01-28T19:11:50.224Z,0.60
2019-01-28T19:14:38.437Z,0.60
2019-01-28T19:17:19.178Z,0.50
2019-01-28T19:20:16.236Z,0.50
2019-01-28T19:22:45.915Z,0.60
2019-01-28T19:25:15.292Z,0.60
2019-01-28T19:27:44.594Z,0.50
2019-01-28T19:30:19.908Z,0.50
2019-01-28T19:32:49.157Z,0.60
2019-01-28T19:35:18.394Z,0.60
2019-01-28T19:37:47.710Z,0.60
2019-01-28T19:40:16.935Z,0.60
2019-01-28T19:42:46.277Z,0.60
2019-01-28T19:45:18.252Z,0.60
2019-01-28T19:47:47.941Z,0.60
2019-01-28T19:50:20.169Z,0.50
2019-01-28T19:52:49.839Z,0.50
2019-01-28T19:55:19.494Z,0.50
2019-01-28T19:57:48.820Z,0.50
2019-01-28T20:00:24.671Z,0.50
2019-01-28T20:02:55.042Z,0.50
2019-01-28T20:05:24.407Z,0.40
2019-01-28T20:07:53.704Z,0.40
2019-01-28T20:10:23.018Z,0.50
2019-01-28T20:12:52.316Z,0.50
2019-01-28T20:15:22.993Z,0.50
2019-01-28T20:17:52.746Z,0.50
2019-01-28T20:20:22.085Z,0.60
2019-01-28T20:22:51.407Z,0.60
2019-01-28T20:25:20.733Z,0.60
2019-01-28T20:27:50.099Z,0.70
2019-01-28T20:30:21.921Z,0.70
2019-01-28T20:32:51.203Z,0.80
2019-01-28T20:35:20.893Z,0.80
2019-01-28T20:37:50.285Z,0.90
2019-01-28T20:40:19.628Z,0.90
2019-01-28T20:42:48.969Z,0.90
2019-01-28T20:45:20.879Z,0.90
2019-01-28T20:47:50.089Z,0.90
2019-01-28T20:50:22.215Z,0.90
2019-01-28T20:52:51.525Z,0.90
2019-01-28T20:55:21.410Z,0.90
2019-01-28T20:57:50.696Z,1.00
2019-01-28T21:00:22.365Z,1.00
2019-01-28T21:02:51.798Z,1.00
2019-01-28T21:05:21.376Z,1.00
2019-01-28T21:07:50.908Z,1.10
2019-01-28T21:10:21.262Z,1.10
2019-01-28T21:12:51.434Z,1.10
2019-01-28T21:15:20.784Z,1.10
2019-01-28T21:17:50.193Z,1.10
2019-01-28T21:20:19.516Z,1.20
2019-01-28T21:22:49.411Z,1.10
2019-01-28T21:25:21.410Z,1.10
2019-01-28T21:27:50.732Z,1.20
2019-01-28T21:30:22.808Z,1.20
2019-01-28T21:32:52.235Z,1.20
2019-01-28T21:35:34.341Z,1.20
2019-01-28T21:38:05.704Z,1.20
2019-01-28T21:40:35.258Z,1.20
2019-01-28T21:43:05.002Z,1.20
2019-01-28T21:45:34.279Z,1.10
2019-01-28T21:48:04.010Z,1.10
2019-01-28T21:50:33.793Z,1.10
2019-01-28T21:53:03.013Z,1.10
2019-01-28T21:55:32.310Z,1.20
2019-01-28T21:58:01.503Z,1.20
2019-01-28T22:00:30.740Z,1.20
2019-01-28T22:03:00.064Z,1.10
2019-01-28T22:05:29.393Z,1.10
2019-01-28T22:07:58.575Z,1.20
2019-01-28T22:10:27.774Z,1.20
2019-01-28T22:12:56.961Z,1.20
2019-01-28T22:15:26.228Z,1.20
2019-01-28T22:17:55.422Z,1.20
2019-01-28T22:20:25.078Z,1.20
2019-01-28T22:22:54.310Z,1.20
2019-01-28T22:25:23.484Z,1.20
2019-01-28T22:27:57.444Z,1.20
2019-01-28T22:30:23.652Z,1.10
